Time;durP1;ratioP1;P1;durP2;ratioP2;P2;SDS_P1;SDS_P2;PMS_P1;PMS_P2;Temp;Humidity;BMP_temperature;BMP_pressure;BME280_temperature;BME280_humidity;BME280_pressure;Samples;Min_cycle;Max_cycle;Signal;HPM_P1;HPM_P2
2022/01/22 00:01:38;;;;;;;7.30;2.83;;;;;;;4.12;100.00;102387.69;4897505;29;20244;-49
2022/01/22 00:04:04;;;;;;;9.68;3.13;;;;;;;4.15;100.00;102376.22;4910487;29;20191;-46
2022/01/22 00:06:29;;;;;;;10.25;2.85;;;;;;;4.06;100.00;102374.34;4916978;29;20275;-48
2022/01/22 00:08:55;;;;;;;5.57;3.38;;;;;;;4.09;100.00;102370.88;4917187;29;20242;-48
2022/01/22 00:11:20;;;;;;;8.30;3.10;;;;;;;4.09;100.00;102379.72;4894371;29;20602;-46
2022/01/22 00:16:29;;;;;;;6.25;2.78;;;;;;;4.05;100.00;102377.00;4916794;29;20212;-48
2022/01/22 00:18:55;;;;;;;9.50;3.05;;;;;;;4.06;100.00;102384.06;4917105;29;20260;-48
2022/01/22 00:21:20;;;;;;;8.45;2.88;;;;;;;4.10;100.00;102378.81;4916518;29;20180;-46
2022/01/22 00:23:55;;;;;;;6.55;2.90;;;;;;;4.12;100.00;102384.16;4915099;29;20620;-46
2022/01/22 00:26:21;;;;;;;10.80;3.35;;;;;;;4.13;100.00;102373.56;4915498;29;20203;-49
2022/01/22 00:28:46;;;;;;;10.02;2.85;;;;;;;4.09;100.00;102378.81;4912980;29;20176;-48
2022/01/22 00:31:12;;;;;;;12.02;3.58;;;;;;;4.07;100.00;102375.25;4896637;29;20554;-46
2022/01/22 00:33:37;;;;;;;9.35;2.88;;;;;;;4.10;100.00;102378.81;4895659;29;20193;-45
2022/01/22 00:36:03;;;;;;;7.70;2.78;;;;;;;4.07;100.00;102376.13;4897761;29;20204;-46
2022/01/22 00:38:28;;;;;;;9.77;2.95;;;;;;;4.06;100.00;102379.66;4898361;29;20222;-47
2022/01/22 00:40:54;;;;;;;7.55;2.70;;;;;;;4.06;100.00;102384.06;4897379;29;20188;-47
2022/01/22 00:43:20;;;;;;;9.30;2.83;;;;;;;4.10;100.00;102383.25;4897529;29;20249;-47
2022/01/22 00:45:46;;;;;;;11.98;3.03;;;;;;;4.04;100.00;102388.47;4897724;29;20677;-48
2022/01/22 00:48:11;;;;;;;7.28;3.10;;;;;;;4.03;100.00;102371.66;4897373;29;20261;-47
2022/01/22 00:50:37;;;;;;;5.82;2.65;;;;;;;3.99;100.00;102382.22;4896170;29;20216;-47
2022/01/22 00:53:02;;;;;;;6.57;2.80;;;;;;;4.01;100.00;102378.69;4897430;29;20184;-48
2022/01/22 00:55:28;;;;;;;8.45;2.70;;;;;;;3.97;100.00;102390.13;4895889;29;20216;-47
2022/01/22 00:57:53;;;;;;;8.10;2.83;;;;;;;3.98;100.00;102385.72;4897259;29;20184;-48
2022/01/22 01:00:19;;;;;;;10.23;3.20;;;;;;;3.91;100.00;102400.66;4897861;29;20204;-46
2022/01/22 01:02:46;;;;;;;8.27;2.60;;;;;;;3.90;100.00;102402.41;4897187;29;20184;-46
2022/01/22 01:05:12;;;;;;;9.95;3.35;;;;;;;3.94;100.00;102394.53;4896779;29;20236;-48
2022/01/22 01:07:39;;;;;;;8.45;3.00;;;;;;;3.94;100.00;102403.38;4897358;29;20201;-47
2022/01/22 01:10:07;;;;;;;11.57;3.33;;;;;;;3.96;100.00;102398.97;4895943;29;20649;-46
2022/01/22 01:12:33;;;;;;;10.52;3.00;;;;;;;3.90;100.00;102410.38;4880377;29;20183;-47
2022/01/22 01:15:34;;;;;;;9.48;2.65;;;;;;;3.94;100.00;102415.72;4895080;29;20208;-46
2022/01/22 01:34:01;;;;;;;9.30;2.50;;;;;;;3.78;100.00;102441.09;4896387;29;20176;-45
2022/01/22 01:36:27;;;;;;;6.95;2.55;;;;;;;3.76;100.00;102441.09;4895333;29;20240;-48
2022/01/22 01:38:58;;;;;;;7.97;2.10;;;;;;;3.79;100.00;102440.25;4895242;29;20230;-49
2022/01/22 01:41:32;;;;;;;10.77;2.60;;;;;;;3.69;100.00;102448.03;4896968;29;20557;-46
2022/01/22 01:43:58;;;;;;;8.85;2.78;;;;;;;3.71;100.00;102448.06;4894756;29;20689;-47
2022/01/22 01:46:57;;;;;;;9.15;2.50;;;;;;;3.76;100.00;102469.34;4895867;29;20695;-46
2022/01/22 01:49:24;;;;;;;6.95;1.98;;;;;;;3.69;100.00;102455.97;4895212;29;20188;-47
2022/01/22 01:51:52;;;;;;;6.90;2.65;;;;;;;3.63;100.00;102461.22;4895222;29;20665;-45
2022/01/22 01:54:33;;;;;;;10.40;2.22;;;;;;;3.72;100.00;102460.47;4894735;29;20176;-48
2022/01/22 01:59:47;;;;;;;8.15;2.22;;;;;;;3.65;100.00;102461.22;4895108;29;20264;-48
2022/01/22 02:02:22;;;;;;;13.43;2.60;;;;;;;3.67;100.00;102464.78;4894840;29;20187;-44
2022/01/22 02:04:48;;;;;;;9.95;3.05;;;;;;;3.70;100.00;102468.38;4894803;29;20201;-47
2022/01/22 02:07:13;;;;;;;9.07;2.45;;;;;;;3.75;100.00;102467.56;4895948;29;20762;-46
2022/01/22 02:09:44;;;;;;;9.65;2.80;;;;;;;3.70;100.00;102478.09;4894902;29;20645;-45
2022/01/22 02:12:23;;;;;;;9.13;2.55;;;;;;;3.69;100.00;102479.84;4894334;29;20185;-45
2022/01/22 02:23:40;;;;;;;10.05;2.58;;;;;;;3.54;100.00;102502.53;4923626;29;20291;-47
2022/01/22 02:26:08;;;;;;;9.38;2.17;;;;;;;3.62;100.00;102496.50;4912985;29;20248;-43
2022/01/22 02:28:40;;;;;;;4.15;1.80;;;;;;;3.66;100.00;102501.00;4911120;29;20172;-43
2022/01/22 02:31:20;;;;;;;4.10;1.98;;;;;;;3.71;100.00;102503.72;4881802;29;20185;-43
2022/01/22 02:36:55;;;;;;;9.65;2.45;;;;;;;3.67;100.00;102505.47;4891181;29;20296;-41
2022/01/22 02:39:32;;;;;;;11.15;2.50;;;;;;;3.75;100.00;102513.53;4891430;29;20193;-43
2022/01/22 02:41:58;;;;;;;9.38;2.30;;;;;;;3.62;100.00;102507.13;4891369;29;20264;-43
2022/01/22 02:44:34;;;;;;;5.75;2.97;;;;;;;3.68;100.00;102499.28;4891524;29;20489;-42
2022/01/22 02:47:06;;;;;;;9.25;2.72;;;;;;;3.65;100.00;102508.91;4890856;29;20682;-42
2022/01/22 02:49:32;;;;;;;10.57;2.38;;;;;;;3.70;100.00;102501.97;4891703;29;20185;-43
2022/01/22 02:52:04;;;;;;;10.95;3.00;;;;;;;3.67;100.00;102518.72;4875245;29;20216;-41
2022/01/22 02:54:30;;;;;;;7.28;2.65;;;;;;;3.68;100.00;102523.13;4891222;29;20193;-42
2022/01/22 02:56:57;;;;;;;9.20;2.45;;;;;;;3.67;100.00;102520.44;4875728;29;20201;-43
2022/01/22 02:59:23;;;;;;;11.63;2.53;;;;;;;3.68;100.00;102515.19;4891051;29;20181;-42
2022/01/22 03:01:51;;;;;;;8.63;2.72;;;;;;;3.68;100.00;102515.19;4891068;29;20647;-43
2022/01/22 03:04:17;;;;;;;10.52;2.58;;;;;;;3.69;100.00;102510.75;4875005;29;20181;-43
2022/01/22 03:06:43;;;;;;;9.10;2.47;;;;;;;3.70;100.00;102513.44;4876898;29;20224;-42
2022/01/22 03:09:12;;;;;;;9.77;2.58;;;;;;;3.65;100.00;102496.59;4890974;29;20178;-42
2022/01/22 03:11:47;;;;;;;11.10;3.10;;;;;;;3.67;100.00;102510.75;4891260;29;20240;-45
2022/01/22 03:14:51;;;;;;;11.38;3.00;;;;;;;3.72;100.00;102511.72;4890646;29;20289;-48
2022/01/22 03:17:25;;;;;;;11.13;2.88;;;;;;;3.66;100.00;102510.72;4875182;29;20281;-46
2022/01/22 03:22:32;;;;;;;5.88;2.17;;;;;;;3.69;100.00;102505.47;4875100;29;20189;-46
2022/01/22 03:27:42;;;;;;;9.00;2.88;;;;;;;3.57;100.00;102527.34;4890741;29;20281;-45
2022/01/22 03:30:08;;;;;;;10.23;2.80;;;;;;;3.60;100.00;102527.41;4888758;29;20570;-46
2022/01/22 03:32:41;;;;;;;10.55;2.75;;;;;;;3.58;100.00;102530.88;4878934;29;20173;-47
2022/01/22 03:35:34;;;;;;;7.47;2.50;;;;;;;3.67;100.00;102529.31;4863207;29;20686;-45
2022/01/22 03:37:58;;;;;;;6.95;2.65;;;;;;;3.62;100.00;102530.97;4879767;29;20193;-47
2022/01/22 03:40:28;;;;;;;9.68;2.70;;;;;;;3.61;100.00;102520.38;4880405;29;20174;-47
2022/01/22 03:42:55;;;;;;;9.18;3.08;;;;;;;3.59;100.00;102524.75;4880164;29;20261;-47
2022/01/22 03:45:23;;;;;;;7.45;2.88;;;;;;;3.63;100.00;102530.13;4878180;29;20670;-49
2022/01/22 03:47:49;;;;;;;9.07;2.53;;;;;;;3.63;100.00;102526.56;4878758;29;20201;-47
2022/01/22 03:50:16;;;;;;;7.72;2.70;;;;;;;3.61;100.00;102539.81;4880089;29;20651;-45
2022/01/22 03:52:42;;;;;;;7.75;2.85;;;;;;;3.64;100.00;102552.22;4878747;29;20272;-46
2022/01/22 03:55:14;;;;;;;9.60;3.22;;;;;;;3.63;100.00;102547.75;4878161;29;20284;-47
2022/01/22 03:57:58;;;;;;;12.05;3.00;;;;;;;3.59;100.00;102554.78;4880005;29;20196;-47
2022/01/22 04:00:25;;;;;;;11.68;3.00;;;;;;;3.59;100.00;102553.91;4878679;29;20177;-47
2022/01/22 04:05:24;;;;;;;5.53;2.15;;;;;;;3.62;100.00;102546.88;4879627;29;20178;-48
2022/01/22 04:08:10;;;;;;;6.28;2.78;;;;;;;3.63;100.00;102553.06;4878267;29;20345;-46
2022/01/22 04:10:36;;;;;;;11.80;3.35;;;;;;;3.61;100.00;102568.94;4863247;29;20243;-48
2022/01/22 04:13:06;;;;;;;14.93;3.72;;;;;;;3.65;100.00;102561.94;4879510;29;20643;-48
2022/01/22 04:15:36;;;;;;;8.20;3.03;;;;;;;3.67;100.00;102558.47;4878056;29;20570;-49
2022/01/22 04:26:42;;;;;;;6.50;3.10;;;;;;;3.65;100.00;102549.59;4917588;29;20242;-46
2022/01/22 04:29:07;;;;;;;6.47;2.35;;;;;;;3.70;100.00;102565.56;4908951;29;20646;-45
2022/01/22 04:31:33;;;;;;;5.70;2.50;;;;;;;3.69;100.00;102569.06;4897909;29;20191;-48
2022/01/22 04:33:58;;;;;;;11.13;2.85;;;;;;;3.64;100.00;102561.03;4912234;29;20292;-48
2022/01/22 04:36:24;;;;;;;8.55;2.90;;;;;;;3.61;100.00;102565.41;4897570;29;20288;-48
2022/01/22 04:38:49;;;;;;;6.32;2.63;;;;;;;3.65;100.00;102570.81;4884619;29;20193;-46
2022/01/22 04:41:15;;;;;;;7.07;2.80;;;;;;;3.65;100.00;102573.44;4906212;29;20179;-46
2022/01/22 04:43:42;;;;;;;9.60;3.42;;;;;;;3.65;100.00;102561.94;4916554;29;20180;-45
2022/01/22 04:46:18;;;;;;;9.45;3.08;;;;;;;3.68;100.00;102568.19;4915412;29;20283;-45
2022/01/22 04:48:53;;;;;;;6.32;2.35;;;;;;;3.69;100.00;102575.25;4899649;29;20601;-46
2022/01/22 04:56:54;;;;;;;10.52;3.05;;;;;;;3.59;100.00;102578.63;4916379;29;20192;-45
2022/01/22 04:59:20;;;;;;;8.27;3.00;;;;;;;3.59;100.00;102572.44;4914631;29;20653;-46
2022/01/22 05:01:46;;;;;;;6.40;2.35;;;;;;;3.65;100.00;102561.94;4915433;29;20175;-45
2022/01/22 05:04:16;;;;;;;3.55;1.98;;;;;;;3.66;100.00;102569.91;4914274;29;20276;-44
2022/01/22 05:07:02;;;;;;;5.93;2.30;;;;;;;3.66;100.00;102561.97;4886652;29;20218;-46
2022/01/22 05:09:39;;;;;;;5.72;2.40;;;;;;;3.55;100.00;102568.84;4915087;29;20176;-43
2022/01/22 05:12:08;;;;;;;7.90;2.50;;;;;;;3.50;100.00;102574.06;4914454;29;20188;-46
2022/01/22 05:14:34;;;;;;;6.43;2.15;;;;;;;3.57;100.00;102564.47;4930409;29;20187;-47
2022/01/22 05:17:05;;;;;;;6.85;2.58;;;;;;;3.60;100.00;102571.56;4914506;29;20200;-45
2022/01/22 05:22:03;;;;;;;9.02;2.63;;;;;;;3.58;100.00;102576.81;4914717;29;20289;-47
2022/01/22 05:24:32;;;;;;;7.30;2.40;;;;;;;3.55;100.00;102576.78;4929931;29;20191;-43
2022/01/22 05:32:28;;;;;;;8.90;3.00;;;;;;;3.60;100.00;102587.47;4877111;29;20189;-43
2022/01/22 05:38:01;;;;;;;5.32;2.83;;;;;;;3.48;100.00;102593.44;4876970;29;20187;-48
2022/01/22 05:40:28;;;;;;;6.55;2.40;;;;;;;3.57;100.00;102593.59;4876574;29;20177;-48
2022/01/22 05:42:54;;;;;;;5.55;2.33;;;;;;;3.59;100.00;102591.88;4877973;29;20174;-45
2022/01/22 05:45:19;;;;;;;8.18;2.47;;;;;;;3.58;100.00;102591.84;4877693;29;20181;-44
2022/01/22 05:47:45;;;;;;;6.13;2.40;;;;;;;3.55;100.00;102583.84;4876595;29;20813;-48
2022/01/22 05:50:25;;;;;;;5.43;2.58;;;;;;;3.60;100.00;102583.06;4877827;29;20264;-48
2022/01/22 05:53:05;;;;;;;6.43;2.55;;;;;;;3.61;100.00;102590.16;4875446;29;20177;-46
2022/01/22 06:01:02;;;;;;;5.60;2.30;;;;;;;3.67;100.00;102584.06;4876090;29;20193;-49
2022/01/22 06:03:48;;;;;;;7.18;2.65;;;;;;;3.61;100.00;102592.81;4876725;29;20185;-48
2022/01/22 06:06:14;;;;;;;6.65;2.47;;;;;;;3.61;100.00;102589.28;4877582;29;20201;-48
2022/01/22 06:08:53;;;;;;;5.63;2.22;;;;;;;3.64;100.00;102586.66;4876327;29;20181;-47
2022/01/22 06:11:24;;;;;;;6.10;2.15;;;;;;;3.63;100.00;102584.84;4875749;29;20178;-47
2022/01/22 06:13:50;;;;;;;7.03;2.83;;;;;;;3.63;100.00;102580.47;4876022;29;20192;-46
2022/01/22 06:16:26;;;;;;;9.82;2.65;;;;;;;3.67;100.00;102592.00;4875724;29;20216;-48
2022/01/22 06:19:11;;;;;;;7.70;2.72;;;;;;;3.68;100.00;102591.16;4877266;29;20193;-49
2022/01/22 06:21:37;;;;;;;6.72;2.22;;;;;;;3.67;100.00;102594.66;4875769;29;20192;-49
2022/01/22 06:24:04;;;;;;;6.63;2.42;;;;;;;3.68;100.00;102602.66;4875762;29;20566;-46
2022/01/22 06:26:30;;;;;;;4.57;2.42;;;;;;;3.68;100.00;102596.47;4875709;29;20189;-47
2022/01/22 06:28:55;;;;;;;10.73;3.40;;;;;;;3.69;100.00;102596.47;4880045;29;20185;-46
2022/01/22 06:31:25;;;;;;;8.68;2.75;;;;;;;3.70;100.00;102608.88;4893969;29;20662;-46
2022/01/22 06:33:51;;;;;;;6.03;2.70;;;;;;;3.71;100.00;102608.00;4878021;29;20173;-45
2022/01/22 06:36:17;;;;;;;6.53;2.70;;;;;;;3.74;100.00;102614.22;4893234;29;20226;-49
2022/01/22 06:38:43;;;;;;;8.18;3.30;;;;;;;3.70;100.00;102613.28;4894555;29;20271;-48
2022/01/22 06:41:46;;;;;;;9.38;3.45;;;;;;;3.66;100.00;102617.63;4885870;29;20692;-48
2022/01/22 06:44:34;;;;;;;11.50;3.97;;;;;;;3.54;100.00;102617.38;4895262;29;20212;-48
2022/01/22 06:47:17;;;;;;;9.98;3.58;;;;;;;3.59;100.00;102636.06;4896102;29;20680;-48
2022/01/22 06:49:55;;;;;;;9.48;3.72;;;;;;;3.63;100.00;102622.88;4896026;29;20684;-47
2022/01/22 06:52:58;;;;;;;9.43;3.40;;;;;;;3.65;100.00;102626.47;4894203;29;20567;-47
2022/01/22 06:55:41;;;;;;;7.22;3.38;;;;;;;3.64;100.00;102629.06;4893761;29;20222;-44
2022/01/22 06:58:08;;;;;;;10.35;3.97;;;;;;;3.60;100.00;102619.28;4894011;29;20310;-45
2022/01/22 07:00:36;;;;;;;6.03;3.08;;;;;;;3.66;100.00;102625.59;4894294;29;20248;-46
2022/01/22 07:03:14;;;;;;;11.40;3.92;;;;;;;3.69;100.00;102628.28;4893580;29;20184;-46
2022/01/22 07:05:43;;;;;;;4.25;2.95;;;;;;;3.74;100.00;102632.78;4894087;29;20196;-45
2022/01/22 07:08:13;;;;;;;5.15;3.00;;;;;;;3.76;100.00;102636.34;4894009;29;20189;-45
2022/01/22 07:10:42;;;;;;;3.20;2.63;;;;;;;3.77;100.00;102640.81;4895377;29;20184;-47
2022/01/22 07:13:07;;;;;;;8.60;3.20;;;;;;;3.76;100.00;102637.28;4893879;29;20193;-44
2022/01/22 07:15:34;;;;;;;5.78;3.10;;;;;;;3.76;100.00;102639.00;4893826;29;20601;-45
2022/01/22 07:18:11;;;;;;;14.95;4.28;;;;;;;3.66;100.00;102644.13;4894111;29;20191;-48
2022/01/22 07:20:39;;;;;;;8.82;3.53;;;;;;;3.71;100.00;102652.19;4893788;29;20532;-47
2022/01/22 07:25:53;;;;;;;7.95;3.40;;;;;;;3.78;100.00;102647.88;4893447;29;20204;-44
2022/01/22 07:28:29;;;;;;;10.27;3.47;;;;;;;3.75;100.00;102654.03;4894979;29;20180;-49
2022/01/22 07:30:55;;;;;;;9.18;3.40;;;;;;;3.77;100.00;102643.47;4894844;29;20192;-48
2022/01/22 07:33:22;;;;;;;11.05;4.50;;;;;;;3.74;100.00;102638.06;4908588;29;20181;-45
2022/01/22 07:35:49;;;;;;;8.55;3.75;;;;;;;3.74;100.00;102646.03;4908687;29;20220;-47
2022/01/22 07:38:15;;;;;;;14.90;4.50;;;;;;;3.78;100.00;102643.47;4909014;29;20189;-47
2022/01/22 07:40:41;;;;;;;15.98;5.18;;;;;;;3.71;100.00;102641.56;4892505;29;20192;-46
2022/01/22 07:43:16;;;;;;;13.15;6.70;;;;;;;3.71;100.00;102639.81;4893365;29;20616;-45
2022/01/22 07:46:13;;;;;;;16.27;6.63;;;;;;;3.78;100.00;102642.59;4893138;29;20223;-47
2022/01/22 07:48:49;;;;;;;28.90;9.82;;;;;;;3.82;100.00;102644.44;4889833;29;20189;-46
2022/01/22 07:51:20;;;;;;;27.48;11.60;;;;;;;3.87;100.00;102645.41;4876365;29;20188;-46
2022/01/22 07:53:45;;;;;;;26.58;11.68;;;;;;;3.89;100.00;102643.66;4874324;29;20198;-47
2022/01/22 07:56:21;;;;;;;30.30;12.88;;;;;;;3.90;100.00;102643.72;4891351;29;20204;-47
2022/01/22 07:58:48;;;;;;;21.20;10.38;;;;;;;3.91;100.00;102649.91;4893169;29;20189;-45
2022/01/22 08:01:14;;;;;;;27.73;12.90;;;;;;;3.95;100.00;102661.47;4908577;29;20176;-47
2022/01/22 08:04:01;;;;;;;27.38;15.80;;;;;;;3.88;100.00;102648.09;4892560;29;20203;-48
2022/01/22 08:06:51;;;;;;;26.00;14.77;;;;;;;3.98;100.00;102662.44;4882786;29;20675;-44
2022/01/22 08:09:35;;;;;;;21.98;11.98;;;;;;;4.01;100.00;102658.94;4890095;29;20216;-48
2022/01/22 08:12:17;;;;;;;20.92;11.30;;;;;;;4.02;100.00;102661.59;4892422;29;20184;-45
2022/01/22 08:14:43;;;;;;;20.98;9.80;;;;;;;3.99;100.00;102658.00;4888561;29;20182;-48
2022/01/22 08:17:09;;;;;;;21.05;11.32;;;;;;;4.05;100.00;102663.44;4897699;29;20207;-46
2022/01/22 08:19:36;;;;;;;30.02;13.60;;;;;;;4.08;100.00;102656.41;4896162;29;20191;-47
2022/01/22 08:22:06;;;;;;;26.65;12.73;;;;;;;4.15;100.00;102657.41;4905605;29;20179;-47
2022/01/22 08:24:53;;;;;;;30.30;12.57;;;;;;;4.20;100.00;102662.78;4915525;29;20202;-46
2022/01/22 08:29:55;;;;;;;27.20;11.32;;;;;;;4.24;100.00;102669.94;4895552;29;20195;-48
2022/01/22 08:37:50;;;;;;;18.02;9.55;;;;;;;4.30;100.00;102665.63;4928544;29;20587;-46
2022/01/22 08:40:17;;;;;;;24.20;10.55;;;;;;;4.34;100.00;102685.16;4930207;29;20176;-45
2022/01/22 08:42:44;;;;;;;21.95;10.48;;;;;;;4.36;100.00;102679.91;4907313;29;20249;-47
2022/01/22 08:45:10;;;;;;;22.77;10.45;;;;;;;4.36;100.00;102683.44;4876345;29;20260;-47
2022/01/22 08:47:39;;;;;;;24.90;9.85;;;;;;;4.43;100.00;102685.31;4903262;29;20240;-46
2022/01/22 08:50:05;;;;;;;18.63;9.40;;;;;;;4.40;100.00;102693.25;4906651;29;20209;-45
2022/01/22 08:52:35;;;;;;;22.55;10.00;;;;;;;4.41;100.00;102678.19;4914164;29;20184;-45
2022/01/22 08:55:01;;;;;;;20.65;9.88;;;;;;;4.39;100.00;102688.78;4914135;29;20704;-48
2022/01/22 08:57:28;;;;;;;18.58;9.15;;;;;;;4.44;100.00;102689.78;4914886;29;20204;-43
2022/01/22 09:00:01;;;;;;;20.08;8.80;;;;;;;4.38;100.00;102681.69;4931275;29;20192;-43
2022/01/22 09:02:27;;;;;;;20.75;9.60;;;;;;;4.41;100.00;102678.19;4915507;29;20172;-41
2022/01/22 09:05:20;;;;;;;27.17;10.63;;;;;;;4.46;100.00;102687.13;4903648;29;20187;-44
2022/01/22 09:08:05;;;;;;;22.15;10.80;;;;;;;4.46;100.00;102693.34;4916308;29;20614;-45
2022/01/22 09:10:50;;;;;;;27.17;10.23;;;;;;;4.50;100.00;102688.97;4929125;29;20215;-44
2022/01/22 09:13:29;;;;;;;22.40;10.40;;;;;;;4.53;100.00;102683.72;4910823;29;20204;-42
2022/01/22 09:16:05;;;;;;;22.40;9.85;;;;;;;4.56;100.00;102693.50;4911600;29;20693;-50
2022/01/22 09:18:30;;;;;;;23.60;10.35;;;;;;;4.62;100.00;102688.31;4898950;29;20185;-48
2022/01/22 09:23:25;;;;;;;18.67;9.57;;;;;;;4.64;100.00;102700.72;4893730;29;20204;-47
2022/01/22 09:25:52;;;;;;;21.33;9.35;;;;;;;4.68;100.00;102699.91;4895507;29;20200;-45
2022/01/22 09:28:19;;;;;;;25.98;9.98;;;;;;;4.71;100.00;102705.25;4894388;29;20233;-46
2022/01/22 09:30:48;;;;;;;21.45;9.65;;;;;;;4.73;100.00;102699.97;4895417;29;20185;-47
2022/01/22 09:33:14;;;;;;;21.67;9.65;;;;;;;4.71;100.00;102702.59;4895345;29;20244;-49
2022/01/22 09:36:00;;;;;;;15.25;7.53;;;;;;;4.76;100.00;102700.00;4896267;29;20709;-47
2022/01/22 09:38:28;;;;;;;13.50;7.90;;;;;;;4.78;100.00;102708.00;4896857;29;20227;-50
2022/01/22 09:41:14;;;;;;;17.02;7.60;;;;;;;4.80;100.00;102717.78;4896594;29;20258;-47
2022/01/22 09:44:03;;;;;;;15.02;7.63;;;;;;;4.80;100.00;102712.47;4894295;29;20256;-47
2022/01/22 09:46:29;;;;;;;17.10;8.05;;;;;;;4.78;100.00;102713.31;4914761;29;20600;-47
2022/01/22 09:49:11;;;;;;;15.23;7.70;;;;;;;4.83;100.00;102719.59;4913373;29;20181;-47
2022/01/22 09:51:47;;;;;;;18.23;8.48;;;;;;;4.81;100.00;102708.97;4913549;29;20613;-46
2022/01/22 09:54:45;;;;;;;17.73;7.07;;;;;;;4.85;100.00;102710.78;4901136;29;20225;-48
2022/01/22 09:57:28;;;;;;;17.58;6.72;;;;;;;4.86;100.00;102730.28;4914173;29;20204;-48
2022/01/22 10:00:19;;;;;;;14.90;7.53;;;;;;;4.90;100.00;102727.69;4914374;29;20248;-47
2022/01/22 10:02:50;;;;;;;17.15;6.60;;;;;;;4.80;100.00;102719.56;4913936;29;20275;-47
2022/01/22 10:05:40;;;;;;;14.90;6.78;;;;;;;4.88;100.00;102721.47;4913196;29;20191;-48
2022/01/22 10:08:40;;;;;;;14.15;7.10;;;;;;;4.88;100.00;102724.13;4913686;29;20215;-48
2022/01/22 10:11:27;;;;;;;18.10;7.05;;;;;;;4.93;100.00;102737.47;4912570;29;20195;-45
2022/01/22 10:14:18;;;;;;;14.32;6.72;;;;;;;4.99;100.00;102726.06;4910552;29;20645;-46
2022/01/22 10:16:48;;;;;;;13.55;5.88;;;;;;;5.01;100.00;102730.53;4898299;29;20244;-46
2022/01/22 10:19:20;;;;;;;13.80;6.90;;;;;;;4.99;100.00;102726.94;4890855;29;20172;-46
2022/01/22 10:21:47;;;;;;;16.45;6.22;;;;;;;5.00;100.00;102728.72;4895698;29;20207;-49
2022/01/22 10:24:31;;;;;;;14.85;5.93;;;;;;;5.04;100.00;102729.66;4894304;29;20200;-48
2022/01/22 10:27:44;;;;;;;14.50;5.97;;;;;;;5.10;100.00;102728.00;4895609;29;20287;-48
2022/01/22 10:30:14;;;;;;;8.32;5.10;;;;;;;5.13;100.00;102727.16;4896026;29;20247;-48
2022/01/22 10:35:50;;;;;;;9.63;4.90;;;;;;;5.03;100.00;102730.53;4894266;29;20259;-49
2022/01/22 10:38:41;;;;;;;6.90;4.35;;;;;;;5.05;100.00;102723.47;4895512;29;20613;-48
2022/01/22 10:41:07;;;;;;;10.30;4.95;;;;;;;5.07;100.00;102735.03;4896239;29;20721;-47
2022/01/22 10:43:34;;;;;;;11.18;4.65;;;;;;;5.09;100.00;102718.22;4895114;29;20587;-48
2022/01/22 10:47:03;;;;;;;12.40;4.70;;;;;;;5.10;100.00;102713.84;4895429;29;20654;-45
2022/01/22 10:49:24;;;;;;;12.45;4.68;;;;;;;5.10;100.00;102719.16;4898090;29;20220;-45
2022/01/22 10:51:59;;;;;;;6.80;4.18;;;;;;;5.20;100.00;102713.06;4895214;29;20600;-43
2022/01/22 10:54:27;;;;;;;8.40;4.13;;;;;;;5.23;100.00;102707.81;4894818;29;20192;-44
2022/01/22 10:56:54;;;;;;;14.68;5.03;;;;;;;5.24;100.00;102716.69;4895594;29;20223;-45
2022/01/22 10:59:21;;;;;;;12.15;4.47;;;;;;;5.20;100.00;102723.69;4894420;29;20173;-43
2022/01/22 11:02:02;;;;;;;7.18;3.88;;;;;;;5.30;100.00;102716.78;4895363;29;20678;-42
2022/01/22 11:04:34;;;;;;;7.82;4.47;;;;;;;5.31;100.00;102721.19;4895597;29;20305;-45
2022/01/22 11:07:02;;;;;;;7.85;4.22;;;;;;;5.41;100.00;102724.91;4895122;29;20279;-45
2022/01/22 11:09:32;;;;;;;7.28;3.45;;;;;;;5.46;100.00;102723.19;4895451;29;20177;-43
2022/01/22 11:11:59;;;;;;;7.05;3.88;;;;;;;5.34;100.00;102722.16;4894906;29;20180;-42
2022/01/22 11:14:27;;;;;;;7.05;3.92;;;;;;;5.41;100.00;102727.56;4894639;29;20547;-45
2022/01/22 11:16:54;;;;;;;6.68;3.95;;;;;;;5.39;100.00;102731.94;4894744;29;20212;-45
2022/01/22 11:19:30;;;;;;;7.70;3.97;;;;;;;5.41;100.00;102735.53;4894932;29;20177;-45
2022/01/22 11:21:57;;;;;;;8.73;4.13;;;;;;;5.39;100.00;102747.91;4895264;29;20513;-44
2022/01/22 11:24:24;;;;;;;5.80;3.55;;;;;;;5.33;100.00;102748.69;4894792;29;20212;-43
2022/01/22 11:26:53;;;;;;;6.97;3.60;;;;;;;5.40;100.00;102741.69;4895064;29;20200;-45
2022/01/22 11:29:23;;;;;;;5.82;3.40;;;;;;;5.39;100.00;102746.13;4893556;29;20231;-43
2022/01/22 11:31:51;;;;;;;9.60;3.65;;;;;;;5.35;100.00;102754.94;4894986;29;20188;-45
2022/01/22 11:34:23;;;;;;;7.22;4.15;;;;;;;5.35;100.00;102745.19;4894129;29;20180;-44
2022/01/22 11:37:06;;;;;;;9.65;3.47;;;;;;;5.30;100.00;102753.97;4894863;29;20217;-45
2022/01/22 11:39:33;;;;;;;7.25;3.40;;;;;;;5.34;100.00;102734.53;4894974;29;20181;-43
2022/01/22 11:41:59;;;;;;;10.23;4.68;;;;;;;5.32;100.00;102742.50;4895054;29;20177;-43
2022/01/22 11:44:33;;;;;;;7.60;3.88;;;;;;;5.40;100.00;102749.66;4894722;29;20185;-43
2022/01/22 11:47:15;;;;;;;7.90;4.22;;;;;;;5.28;100.00;102743.31;4895019;29;20197;-45
2022/01/22 11:50:00;;;;;;;6.05;3.83;;;;;;;5.32;100.00;102750.47;4895162;29;20571;-47
2022/01/22 11:52:29;;;;;;;4.50;3.60;;;;;;;5.34;100.00;102746.06;4898859;29;20201;-44
2022/01/22 11:55:00;;;;;;;7.53;3.90;;;;;;;5.38;100.00;102747.00;4898069;29;20177;-48
2022/01/22 11:57:28;;;;;;;4.82;3.17;;;;;;;5.36;100.00;102744.31;4898470;29;20192;-42
2022/01/22 12:00:16;;;;;;;4.75;2.97;;;;;;;5.35;100.00;102738.97;4897125;29;20551;-44
2022/01/22 12:02:42;;;;;;;3.83;2.63;;;;;;;5.39;100.00;102734.59;4897226;29;20172;-42
2022/01/22 12:05:08;;;;;;;4.57;3.00;;;;;;;5.38;100.00;102752.34;4898148;29;20559;-47
2022/01/22 12:07:37;;;;;;;3.50;2.83;;;;;;;5.41;100.00;102741.72;4898145;29;20248;-46
2022/01/22 12:10:43;;;;;;;2.83;2.53;;;;;;;5.39;100.00;102746.13;4898501;29;20197;-43
2022/01/22 12:16:10;;;;;;;2.65;2.25;;;;;;;5.48;100.00;102740.03;4897844;29;20233;-44
2022/01/22 12:18:42;;;;;;;3.95;2.65;;;;;;;5.52;100.00;102744.53;4896295;29;20264;-45
2022/01/22 12:23:55;;;;;;;2.70;2.40;;;;;;;5.45;100.00;102743.56;4897178;29;20195;-47
2022/01/22 12:26:40;;;;;;;3.08;2.70;;;;;;;5.45;100.00;102742.69;4895739;29;20209;-45
2022/01/22 12:29:35;;;;;;;3.08;2.83;;;;;;;5.51;100.00;102735.69;4900866;29;20662;-45
2022/01/22 12:32:17;;;;;;;4.20;2.30;;;;;;;5.52;100.00;102741.88;4916108;29;20178;-43
2022/01/22 12:34:58;;;;;;;2.58;2.20;;;;;;;5.52;100.00;102734.78;4914566;29;20653;-42
2022/01/22 12:37:24;;;;;;;4.20;2.10;;;;;;;5.54;100.00;102735.69;4916621;29;20729;-42
2022/01/22 12:39:53;;;;;;;2.30;2.10;;;;;;;5.60;100.00;102732.25;4916131;29;20180;-42
2022/01/22 12:42:34;;;;;;;3.92;2.10;;;;;;;5.58;100.00;102718.03;4916393;29;20180;-44
2022/01/22 12:45:03;;;;;;;4.07;2.45;;;;;;;5.56;100.00;102725.09;4914349;29;20188;-42
2022/01/22 12:47:29;;;;;;;2.95;2.13;;;;;;;5.56;100.00;102730.41;4914743;29;20259;-45
2022/01/22 12:50:06;;;;;;;5.10;2.10;;;;;;;5.47;100.00;102724.97;4916148;29;20168;-44
2022/01/22 12:52:36;;;;;;;2.38;1.90;;;;;;;5.51;100.00;102724.13;4916168;29;20192;-46
2022/01/22 12:55:18;;;;;;;3.67;1.73;;;;;;;5.49;100.00;102728.56;4915522;29;20653;-45
2022/01/22 12:57:44;;;;;;;2.00;1.70;;;;;;;5.62;100.00;102732.25;4916408;29;20677;-45
2022/01/22 13:00:14;;;;;;;2.28;1.55;;;;;;;5.60;100.00;102729.59;4915699;29;20701;-45
2022/01/22 13:02:50;;;;;;;4.43;1.45;;;;;;;5.56;100.00;102741.06;4915922;29;20176;-43
2022/01/22 13:05:18;;;;;;;1.85;1.70;;;;;;;5.56;100.00;102725.09;4915650;29;20649;-44
2022/01/22 13:08:30;;;;;;;3.05;1.77;;;;;;;5.49;100.00;102728.56;4910872;29;20187;-44
2022/01/22 13:11:09;;;;;;;2.00;1.70;;;;;;;5.48;100.00;102732.06;4895271;29;20196;-45
2022/01/22 13:13:39;;;;;;;2.17;1.50;;;;;;;5.50;100.00;102735.66;4895117;29;20537;-43
2022/01/22 13:16:12;;;;;;;3.92;1.85;;;;;;;5.44;100.00;102723.16;4896548;29;20654;-44
2022/01/22 13:18:46;;;;;;;3.00;1.65;;;;;;;5.40;100.00;102731.06;4896856;29;20540;-44
2022/01/22 13:21:15;;;;;;;2.05;1.80;;;;;;;5.47;100.00;102736.50;4897362;29;20661;-46